sensor_id;sensor_type;location;lat;lon;timestamp;pressure;altitude;pressure_sealevel;temperature;humidity
41515;BME280;27247;48.020;16.720;2023-05-08T00:02:41;100524.53;;;8.38;83.78
41515;BME280;27247;48.020;16.720;2023-05-08T00:06:51;100514.88;;;8.37;83.44
41515;BME280;27247;48.020;16.720;2023-05-08T00:11:02;100515.41;;;8.30;84.08
41515;BME280;27247;48.020;16.720;2023-05-08T00:15:12;100512.19;;;8.27;83.89
41515;BME280;27247;48.020;16.720;2023-05-08T00:19:22;100519.06;;;8.20;83.83
41515;BME280;27247;48.020;16.720;2023-05-08T00:23:33;100514.03;;;8.17;84.79
41515;BME280;27247;48.020;16.720;2023-05-08T00:27:43;100509.81;;;8.14;84.59
41515;BME280;27247;48.020;16.720;2023-05-08T00:31:53;100517.97;;;8.13;84.27
41515;BME280;27247;48.020;16.720;2023-05-08T00:36:04;100512.66;;;8.03;84.45
41515;BME280;27247;48.020;16.720;2023-05-08T00:40:15;100508.31;;;8.02;84.11
41515;BME280;27247;48.020;16.720;2023-05-08T00:44:25;100511.41;;;7.88;84.70
41515;BME280;27247;48.020;16.720;2023-05-08T00:48:37;100510.00;;;7.93;84.59
41515;BME280;27247;48.020;16.720;2023-05-08T00:52:49;100509.03;;;7.94;85.02
41515;BME280;27247;48.020;16.720;2023-05-08T00:56:59;100512.09;;;7.90;84.90
41515;BME280;27247;48.020;16.720;2023-05-08T01:01:10;100507.09;;;7.77;85.63
41515;BME280;27247;48.020;16.720;2023-05-08T01:05:20;100518.72;;;7.76;85.70
41515;BME280;27247;48.020;16.720;2023-05-08T01:09:31;100515.75;;;7.69;86.04
41515;BME280;27247;48.020;16.720;2023-05-08T01:13:55;100524.59;;;7.70;86.46
41515;BME280;27247;48.020;16.720;2023-05-08T01:18:16;100524.31;;;7.63;86.50
41515;BME280;27247;48.020;16.720;2023-05-08T01:36:22;100537.19;;;7.58;87.22
41515;BME280;27247;48.020;16.720;2023-05-08T01:40:42;100528.06;;;7.42;87.35
41515;BME280;27247;48.020;16.720;2023-05-08T01:44:59;100536.19;;;7.50;87.46
41515;BME280;27247;48.020;16.720;2023-05-08T01:49:16;100536.47;;;7.37;86.93
41515;BME280;27247;48.020;16.720;2023-05-08T01:53:36;100544.31;;;7.39;86.85
41515;BME280;27247;48.020;16.720;2023-05-08T01:57:51;100549.06;;;7.35;86.69
41515;BME280;27247;48.020;16.720;2023-05-08T02:02:03;100548.78;;;7.48;86.93
41515;BME280;27247;48.020;16.720;2023-05-08T02:06:17;100550.88;;;7.44;86.57
41515;BME280;27247;48.020;16.720;2023-05-08T02:10:29;100556.75;;;7.28;86.54
41515;BME280;27247;48.020;16.720;2023-05-08T02:14:41;100554.09;;;6.98;88.45
41515;BME280;27247;48.020;16.720;2023-05-08T02:18:53;100557.66;;;7.18;88.38
41515;BME280;27247;48.020;16.720;2023-05-08T02:23:05;100560.00;;;7.01;87.72
41515;BME280;27247;48.020;16.720;2023-05-08T02:27:16;100567.72;;;7.14;88.12
41515;BME280;27247;48.020;16.720;2023-05-08T02:31:26;100562.41;;;7.14;88.25
41515;BME280;27247;48.020;16.720;2023-05-08T02:35:40;100568.69;;;7.13;88.42
41515;BME280;27247;48.020;16.720;2023-05-08T02:39:55;100563.31;;;6.94;88.36
41515;BME280;27247;48.020;16.720;2023-05-08T02:44:07;100569.81;;;7.11;88.05
41515;BME280;27247;48.020;16.720;2023-05-08T02:48:26;100570.69;;;7.21;87.69
41515;BME280;27247;48.020;16.720;2023-05-08T02:52:48;100569.69;;;7.22;87.24
41515;BME280;27247;48.020;16.720;2023-05-08T02:57:09;100563.41;;;7.23;87.55
41515;BME280;27247;48.020;16.720;2023-05-08T03:01:30;100572.06;;;7.15;87.41
41515;BME280;27247;48.020;16.720;2023-05-08T03:05:48;100571.53;;;7.21;86.68
41515;BME280;27247;48.020;16.720;2023-05-08T03:10:04;100575.81;;;7.03;87.47
41515;BME280;27247;48.020;16.720;2023-05-08T03:14:18;100566.97;;;6.93;87.48
41515;BME280;27247;48.020;16.720;2023-05-08T03:18:36;100574.00;;;6.73;88.88
41515;BME280;27247;48.020;16.720;2023-05-08T03:22:52;100573.25;;;6.92;88.76
41515;BME280;27247;48.020;16.720;2023-05-08T03:27:03;100565.81;;;6.86;88.57
41515;BME280;27247;48.020;16.720;2023-05-08T03:31:16;100574.34;;;6.89;88.04
41515;BME280;27247;48.020;16.720;2023-05-08T03:35:29;100569.75;;;6.91;88.18
41515;BME280;27247;48.020;16.720;2023-05-08T03:39:40;100571.44;;;6.92;88.25
41515;BME280;27247;48.020;16.720;2023-05-08T03:43:52;100574.78;;;6.94;87.82
41515;BME280;27247;48.020;16.720;2023-05-08T03:48:07;100584.03;;;7.00;87.49
41515;BME280;27247;48.020;16.720;2023-05-08T03:52:18;100584.47;;;7.05;87.77
41515;BME280;27247;48.020;16.720;2023-05-08T03:56:28;100576.03;;;6.90;86.88
41515;BME280;27247;48.020;16.720;2023-05-08T04:05:04;100590.63;;;7.05;86.88
41515;BME280;27247;48.020;16.720;2023-05-08T04:09:26;100590.94;;;7.12;86.76
41515;BME280;27247;48.020;16.720;2023-05-08T04:13:48;100595.41;;;7.12;87.22
41515;BME280;27247;48.020;16.720;2023-05-08T04:18:08;100601.59;;;7.22;87.28
41515;BME280;27247;48.020;16.720;2023-05-08T04:22:21;100600.22;;;7.27;86.57
41515;BME280;27247;48.020;16.720;2023-05-08T04:26:34;100608.53;;;7.34;86.08
41515;BME280;27247;48.020;16.720;2023-05-08T04:30:46;100612.28;;;7.31;85.84
41515;BME280;27247;48.020;16.720;2023-05-08T04:34:57;100615.25;;;7.38;85.79
41515;BME280;27247;48.020;16.720;2023-05-08T04:39:08;100621.84;;;7.44;85.47
41515;BME280;27247;48.020;16.720;2023-05-08T04:43:18;100632.78;;;7.50;84.94
41515;BME280;27247;48.020;16.720;2023-05-08T04:47:28;100631.81;;;7.61;84.96
41515;BME280;27247;48.020;16.720;2023-05-08T04:51:39;100629.44;;;7.67;84.49
41515;BME280;27247;48.020;16.720;2023-05-08T04:55:49;100631.97;;;7.69;84.74
41515;BME280;27247;48.020;16.720;2023-05-08T04:59:59;100622.31;;;7.78;84.16
41515;BME280;27247;48.020;16.720;2023-05-08T05:04:10;100633.66;;;7.80;83.77
41515;BME280;27247;48.020;16.720;2023-05-08T05:08:20;100640.97;;;7.87;84.09
41515;BME280;27247;48.020;16.720;2023-05-08T05:12:30;100643.63;;;7.87;82.54
41515;BME280;27247;48.020;16.720;2023-05-08T05:16:41;100650.91;;;7.85;83.99
41515;BME280;27247;48.020;16.720;2023-05-08T05:20:51;100653.44;;;7.96;83.81
41515;BME280;27247;48.020;16.720;2023-05-08T05:25:01;100649.78;;;7.97;82.51
41515;BME280;27247;48.020;16.720;2023-05-08T05:29:12;100654.56;;;8.13;83.71
41515;BME280;27247;48.020;16.720;2023-05-08T05:33:22;100648.69;;;8.19;83.15
41515;BME280;27247;48.020;16.720;2023-05-08T05:37:32;100656.09;;;8.25;82.35
41515;BME280;27247;48.020;16.720;2023-05-08T05:41:43;100654.69;;;8.31;82.64
41515;BME280;27247;48.020;16.720;2023-05-08T05:45:53;100657.97;;;8.35;82.50
41515;BME280;27247;48.020;16.720;2023-05-08T05:50:05;100663.72;;;8.49;81.95
41515;BME280;27247;48.020;16.720;2023-05-08T05:54:15;100660.09;;;8.41;81.07
41515;BME280;27247;48.020;16.720;2023-05-08T05:58:26;100656.56;;;8.50;82.12
41515;BME280;27247;48.020;16.720;2023-05-08T06:02:37;100668.63;;;8.54;81.66
41515;BME280;27247;48.020;16.720;2023-05-08T06:06:48;100674.91;;;8.72;81.86
41515;BME280;27247;48.020;16.720;2023-05-08T06:10:58;100671.06;;;8.94;82.30
41515;BME280;27247;48.020;16.720;2023-05-08T06:15:09;100674.94;;;9.09;79.71
41515;BME280;27247;48.020;16.720;2023-05-08T06:19:20;100674.31;;;9.25;81.28
41515;BME280;27247;48.020;16.720;2023-05-08T06:23:30;100679.47;;;9.46;79.07
41515;BME280;27247;48.020;16.720;2023-05-08T06:27:40;100675.06;;;9.54;79.18
41515;BME280;27247;48.020;16.720;2023-05-08T06:31:51;100689.13;;;9.74;78.06
41515;BME280;27247;48.020;16.720;2023-05-08T06:36:03;100687.34;;;9.92;77.25
41515;BME280;27247;48.020;16.720;2023-05-08T06:40:14;100687.78;;;9.88;77.86
41515;BME280;27247;48.020;16.720;2023-05-08T06:44:24;100692.00;;;10.08;77.17
41515;BME280;27247;48.020;16.720;2023-05-08T06:48:34;100699.59;;;10.31;76.29
41515;BME280;27247;48.020;16.720;2023-05-08T06:52:45;100686.13;;;10.50;74.82
41515;BME280;27247;48.020;16.720;2023-05-08T06:56:55;100678.91;;;10.33;76.15
41515;BME280;27247;48.020;16.720;2023-05-08T07:01:05;100689.31;;;10.53;75.34
41515;BME280;27247;48.020;16.720;2023-05-08T07:05:16;100697.69;;;10.76;75.64
41515;BME280;27247;48.020;16.720;2023-05-08T07:09:27;100695.81;;;10.95;74.59
41515;BME280;27247;48.020;16.720;2023-05-08T07:13:37;100700.91;;;10.62;73.99
41515;BME280;27247;48.020;16.720;2023-05-08T07:17:48;100693.06;;;10.61;74.38
41515;BME280;27247;48.020;16.720;2023-05-08T07:21:58;100694.25;;;10.66;75.63
41515;BME280;27247;48.020;16.720;2023-05-08T07:26:09;100691.34;;;10.77;74.60
41515;BME280;27247;48.020;16.720;2023-05-08T07:30:20;100701.69;;;10.98;73.91
41515;BME280;27247;48.020;16.720;2023-05-08T07:34:32;100697.13;;;11.16;73.84
41515;BME280;27247;48.020;16.720;2023-05-08T07:38:42;100703.06;;;11.02;73.34
41515;BME280;27247;48.020;16.720;2023-05-08T07:42:53;100702.38;;;11.00;73.02
41515;BME280;27247;48.020;16.720;2023-05-08T07:47:03;100712.19;;;11.17;73.09
41515;BME280;27247;48.020;16.720;2023-05-08T07:51:14;100709.88;;;11.23;74.04
41515;BME280;27247;48.020;16.720;2023-05-08T07:55:24;100708.06;;;11.31;73.32
41515;BME280;27247;48.020;16.720;2023-05-08T07:59:35;100704.91;;;11.36;73.09
41515;BME280;27247;48.020;16.720;2023-05-08T08:03:45;100701.44;;;11.43;72.62
41515;BME280;27247;48.020;16.720;2023-05-08T08:07:55;100694.38;;;11.68;72.95
41515;BME280;27247;48.020;16.720;2023-05-08T08:12:06;100694.31;;;11.86;71.12
41515;BME280;27247;48.020;16.720;2023-05-08T08:16:16;100690.31;;;11.90;70.72
41515;BME280;27247;48.020;16.720;2023-05-08T08:20:26;100689.91;;;11.77;72.02
41515;BME280;27247;48.020;16.720;2023-05-08T08:24:37;100697.31;;;11.83;71.02
41515;BME280;27247;48.020;16.720;2023-05-08T08:28:47;100693.59;;;11.76;72.72
41515;BME280;27247;48.020;16.720;2023-05-08T08:32:57;100700.03;;;11.91;72.37
41515;BME280;27247;48.020;16.720;2023-05-08T08:37:11;100688.66;;;12.05;71.21
41515;BME280;27247;48.020;16.720;2023-05-08T08:41:21;100692.03;;;12.15;71.75
41515;BME280;27247;48.020;16.720;2023-05-08T08:45:32;100684.56;;;12.52;70.91
41515;BME280;27247;48.020;16.720;2023-05-08T08:49:46;100690.06;;;12.91;70.00
41515;BME280;27247;48.020;16.720;2023-05-08T08:54:10;100693.72;;;13.22;68.72
41515;BME280;27247;48.020;16.720;2023-05-08T08:58:24;100694.22;;;13.26;69.02
41515;BME280;27247;48.020;16.720;2023-05-08T09:02:36;100692.47;;;13.57;68.36
41515;BME280;27247;48.020;16.720;2023-05-08T09:06:48;100698.13;;;13.70;67.67
41515;BME280;27247;48.020;16.720;2023-05-08T09:11:00;100692.47;;;13.57;66.84
41515;BME280;27247;48.020;16.720;2023-05-08T09:15:11;100689.19;;;13.78;68.42
41515;BME280;27247;48.020;16.720;2023-05-08T09:19:22;100681.97;;;14.10;67.44
41515;BME280;27247;48.020;16.720;2023-05-08T09:23:34;100690.34;;;14.37;66.40
41515;BME280;27247;48.020;16.720;2023-05-08T09:27:45;100690.16;;;14.70;65.71
41515;BME280;27247;48.020;16.720;2023-05-08T09:31:55;100688.06;;;14.26;65.77
41515;BME280;27247;48.020;16.720;2023-05-08T09:36:23;100678.09;;;14.35;65.65
41515;BME280;27247;48.020;16.720;2023-05-08T09:40:34;100676.50;;;14.49;64.74
41515;BME280;27247;48.020;16.720;2023-05-08T09:44:53;100681.13;;;14.32;65.03
41515;BME280;27247;48.020;16.720;2023-05-08T09:49:03;100682.69;;;14.57;64.06
41515;BME280;27247;48.020;16.720;2023-05-08T09:53:14;100672.66;;;14.89;64.46
41515;BME280;27247;48.020;16.720;2023-05-08T09:57:29;100676.03;;;15.20;63.63
41515;BME280;27247;48.020;16.720;2023-05-08T10:01:40;100677.03;;;15.49;62.35
41515;BME280;27247;48.020;16.720;2023-05-08T10:05:51;100669.81;;;15.79;62.95
41515;BME280;27247;48.020;16.720;2023-05-08T10:10:05;100663.50;;;15.72;61.65
41515;BME280;27247;48.020;16.720;2023-05-08T10:14:16;100654.97;;;15.68;61.84
41515;BME280;27247;48.020;16.720;2023-05-08T10:18:28;100655.53;;;15.63;61.98
41515;BME280;27247;48.020;16.720;2023-05-08T10:22:42;100649.00;;;16.09;62.50
41515;BME280;27247;48.020;16.720;2023-05-08T10:27:16;100641.97;;;16.57;60.54
41515;BME280;27247;48.020;16.720;2023-05-08T10:31:30;100640.22;;;16.21;59.84
41515;BME280;27247;48.020;16.720;2023-05-08T10:35:44;100634.63;;;16.02;62.41
41515;BME280;27247;48.020;16.720;2023-05-08T10:39:56;100644.16;;;15.83;61.31
41515;BME280;27247;48.020;16.720;2023-05-08T10:44:08;100638.72;;;15.98;60.96
41515;BME280;27247;48.020;16.720;2023-05-08T10:48:55;100625.31;;;16.25;61.78
41515;BME280;27247;48.020;16.720;2023-05-08T10:58:10;100613.84;;;16.87;58.42
41515;BME280;27247;48.020;16.720;2023-05-08T11:02:28;100612.47;;;17.46;60.17
41515;BME280;27247;48.020;16.720;2023-05-08T11:06:46;100601.31;;;17.62;57.00
41515;BME280;27247;48.020;16.720;2023-05-08T11:15:11;100605.00;;;17.89;58.71
41515;BME280;27247;48.020;16.720;2023-05-08T11:19:23;100605.16;;;17.74;57.75
41515;BME280;27247;48.020;16.720;2023-05-08T11:23:36;100591.13;;;17.58;56.82
41515;BME280;27247;48.020;16.720;2023-05-08T11:31:57;100587.78;;;18.16;57.19
41515;BME280;27247;48.020;16.720;2023-05-08T11:36:12;100584.03;;;18.70;55.55
41515;BME280;27247;48.020;16.720;2023-05-08T11:45:09;100587.75;;;19.02;56.25
41515;BME280;27247;48.020;16.720;2023-05-08T11:49:22;100578.41;;;19.50;54.49
41515;BME280;27247;48.020;16.720;2023-05-08T11:53:34;100585.22;;;19.21;54.56
41515;BME280;27247;48.020;16.720;2023-05-08T11:57:45;100587.16;;;18.41;55.32
41515;BME280;27247;48.020;16.720;2023-05-08T12:01:55;100586.84;;;17.70;56.48
41515;BME280;27247;48.020;16.720;2023-05-08T12:06:06;100579.38;;;17.78;57.92
41515;BME280;27247;48.020;16.720;2023-05-08T12:10:16;100571.94;;;18.60;56.43
41515;BME280;27247;48.020;16.720;2023-05-08T12:14:27;100584.00;;;19.03;54.45
41515;BME280;27247;48.020;16.720;2023-05-08T12:18:37;100582.59;;;19.45;54.23
41515;BME280;27247;48.020;16.720;2023-05-08T12:22:51;100577.56;;;19.62;53.36
41515;BME280;27247;48.020;16.720;2023-05-08T12:27:02;100575.13;;;19.41;54.09
41515;BME280;27247;48.020;16.720;2023-05-08T12:31:12;100584.03;;;18.97;53.04
41515;BME280;27247;48.020;16.720;2023-05-08T12:35:23;100577.75;;;19.09;54.36
41515;BME280;27247;48.020;16.720;2023-05-08T12:39:34;100572.78;;;19.51;54.94
41515;BME280;27247;48.020;16.720;2023-05-08T12:43:45;100567.22;;;19.39;54.49
41515;BME280;27247;48.020;16.720;2023-05-08T12:47:58;100567.53;;;19.63;53.79
41515;BME280;27247;48.020;16.720;2023-05-08T12:52:12;100556.03;;;19.16;53.21
41515;BME280;27247;48.020;16.720;2023-05-08T12:56:22;100552.34;;;19.04;54.00
41515;BME280;27247;48.020;16.720;2023-05-08T13:00:34;100546.09;;;19.03;53.99
41515;BME280;27247;48.020;16.720;2023-05-08T13:04:46;100540.63;;;19.17;54.03
41515;BME280;27247;48.020;16.720;2023-05-08T13:08:56;100535.59;;;19.20;53.59
41515;BME280;27247;48.020;16.720;2023-05-08T13:13:06;100537.22;;;19.28;54.08
41515;BME280;27247;48.020;16.720;2023-05-08T13:17:17;100529.00;;;19.92;52.18
41515;BME280;27247;48.020;16.720;2023-05-08T13:21:28;100522.78;;;20.42;52.26
41515;BME280;27247;48.020;16.720;2023-05-08T13:25:39;100520.38;;;20.27;52.54
41515;BME280;27247;48.020;16.720;2023-05-08T13:29:49;100513.72;;;19.22;53.00
41515;BME280;27247;48.020;16.720;2023-05-08T13:34:00;100519.47;;;19.38;55.06
41515;BME280;27247;48.020;16.720;2023-05-08T13:38:10;100513.78;;;20.16;53.67
41515;BME280;27247;48.020;16.720;2023-05-08T13:42:20;100517.06;;;20.50;51.03
41515;BME280;27247;48.020;16.720;2023-05-08T13:46:31;100497.31;;;20.79;51.29
41515;BME280;27247;48.020;16.720;2023-05-08T13:50:41;100498.59;;;21.13;50.29
41515;BME280;27247;48.020;16.720;2023-05-08T13:54:51;100501.84;;;21.22;51.02
41515;BME280;27247;48.020;16.720;2023-05-08T13:59:02;100494.38;;;20.99;50.44
41515;BME280;27247;48.020;16.720;2023-05-08T14:03:12;100505.53;;;20.29;50.20
41515;BME280;27247;48.020;16.720;2023-05-08T14:07:22;100493.00;;;19.72;50.31
41515;BME280;27247;48.020;16.720;2023-05-08T14:11:32;100485.75;;;19.66;52.11
41515;BME280;27247;48.020;16.720;2023-05-08T14:15:43;100484.97;;;19.59;52.86
41515;BME280;27247;48.020;16.720;2023-05-08T14:19:53;100491.78;;;19.30;52.80
41515;BME280;27247;48.020;16.720;2023-05-08T14:24:04;100483.19;;;18.95;52.24
41515;BME280;27247;48.020;16.720;2023-05-08T14:28:14;100492.88;;;19.16;54.26
41515;BME280;27247;48.020;16.720;2023-05-08T14:32:24;100489.72;;;19.63;52.84
41515;BME280;27247;48.020;16.720;2023-05-08T14:36:35;100480.47;;;19.77;50.88
41515;BME280;27247;48.020;16.720;2023-05-08T14:40:48;100486.16;;;19.69;50.81
41515;BME280;27247;48.020;16.720;2023-05-08T14:44:59;100486.31;;;19.36;55.11
41515;BME280;27247;48.020;16.720;2023-05-08T14:49:09;100498.50;;;19.21;54.64
41515;BME280;27247;48.020;16.720;2023-05-08T14:53:19;100483.44;;;18.80;54.89
41515;BME280;27247;48.020;16.720;2023-05-08T14:57:30;100493.25;;;18.41;55.95
41515;BME280;27247;48.020;16.720;2023-05-08T15:01:41;100496.41;;;18.32;57.07
41515;BME280;27247;48.020;16.720;2023-05-08T15:05:52;100497.88;;;18.21;58.26
41515;BME280;27247;48.020;16.720;2023-05-08T15:10:02;100492.25;;;18.23;55.43
41515;BME280;27247;48.020;16.720;2023-05-08T15:14:13;100492.03;;;18.24;54.13
41515;BME280;27247;48.020;16.720;2023-05-08T15:18:23;100489.34;;;18.24;53.84
41515;BME280;27247;48.020;16.720;2023-05-08T15:22:37;100487.22;;;18.52;55.25
41515;BME280;27247;48.020;16.720;2023-05-08T15:26:47;100478.44;;;18.57;55.01
41515;BME280;27247;48.020;16.720;2023-05-08T15:30:58;100474.63;;;18.98;53.65
41515;BME280;27247;48.020;16.720;2023-05-08T15:35:08;100472.44;;;19.20;52.63
41515;BME280;27247;48.020;16.720;2023-05-08T15:39:18;100479.06;;;18.59;53.33
41515;BME280;27247;48.020;16.720;2023-05-08T15:43:29;100474.53;;;18.46;54.29
41515;BME280;27247;48.020;16.720;2023-05-08T15:47:39;100476.78;;;18.56;54.14
41515;BME280;27247;48.020;16.720;2023-05-08T15:51:50;100470.97;;;18.52;55.23
41515;BME280;27247;48.020;16.720;2023-05-08T15:56:00;100463.66;;;18.79;53.49
41515;BME280;27247;48.020;16.720;2023-05-08T16:00:11;100463.94;;;19.09;53.06
41515;BME280;27247;48.020;16.720;2023-05-08T16:04:22;100461.50;;;18.95;54.32
41515;BME280;27247;48.020;16.720;2023-05-08T16:08:33;100460.94;;;18.86;53.43
41515;BME280;27247;48.020;16.720;2023-05-08T16:12:43;100454.22;;;18.95;52.61
41515;BME280;27247;48.020;16.720;2023-05-08T16:16:53;100451.44;;;19.08;52.93
41515;BME280;27247;48.020;16.720;2023-05-08T16:21:10;100461.41;;;19.14;53.69
41515;BME280;27247;48.020;16.720;2023-05-08T16:25:22;100466.47;;;19.04;54.01
41515;BME280;27247;48.020;16.720;2023-05-08T16:29:33;100453.47;;;18.62;53.58
41515;BME280;27247;48.020;16.720;2023-05-08T16:33:43;100465.34;;;18.47;53.46
41515;BME280;27247;48.020;16.720;2023-05-08T16:37:53;100472.06;;;18.32;53.65
41515;BME280;27247;48.020;16.720;2023-05-08T16:42:04;100465.41;;;18.08;55.93
41515;BME280;27247;48.020;16.720;2023-05-08T16:46:16;100471.44;;;18.10;58.03
41515;BME280;27247;48.020;16.720;2023-05-08T16:50:26;100470.81;;;18.08;56.96
41515;BME280;27247;48.020;16.720;2023-05-08T16:54:36;100473.72;;;18.13;56.20
41515;BME280;27247;48.020;16.720;2023-05-08T16:58:47;100477.91;;;18.15;57.60
41515;BME280;27247;48.020;16.720;2023-05-08T17:02:57;100475.19;;;18.15;56.52
41515;BME280;27247;48.020;16.720;2023-05-08T17:07:07;100480.81;;;18.07;58.29
41515;BME280;27247;48.020;16.720;2023-05-08T17:11:18;100489.34;;;18.04;58.26
41515;BME280;27247;48.020;16.720;2023-05-08T17:15:28;100478.28;;;17.66;59.65
41515;BME280;27247;48.020;16.720;2023-05-08T17:19:38;100480.03;;;17.33;58.59
41515;BME280;27247;48.020;16.720;2023-05-08T17:23:49;100477.53;;;17.31;59.38
41515;BME280;27247;48.020;16.720;2023-05-08T17:28:00;100478.41;;;17.38;59.91
41515;BME280;27247;48.020;16.720;2023-05-08T17:32:10;100479.41;;;17.31;60.43
41515;BME280;27247;48.020;16.720;2023-05-08T17:36:21;100485.41;;;17.19;62.84
41515;BME280;27247;48.020;16.720;2023-05-08T17:40:31;100492.19;;;17.02;62.23
41515;BME280;27247;48.020;16.720;2023-05-08T17:44:41;100495.31;;;17.06;64.14
41515;BME280;27247;48.020;16.720;2023-05-08T17:48:52;100494.59;;;16.84;64.03
41515;BME280;27247;48.020;16.720;2023-05-08T17:53:02;100513.63;;;16.69;64.58
41515;BME280;27247;48.020;16.720;2023-05-08T17:57:12;100524.09;;;16.57;66.44
41515;BME280;27247;48.020;16.720;2023-05-08T18:01:23;100532.00;;;16.31;67.47
41515;BME280;27247;48.020;16.720;2023-05-08T18:05:36;100536.78;;;15.86;68.79
41515;BME280;27247;48.020;16.720;2023-05-08T18:09:46;100539.50;;;15.86;65.90
41515;BME280;27247;48.020;16.720;2023-05-08T18:13:56;100539.09;;;15.68;68.83
41515;BME280;27247;48.020;16.720;2023-05-08T18:18:07;100538.56;;;15.43;68.56
41515;BME280;27247;48.020;16.720;2023-05-08T18:22:17;100546.78;;;15.20;68.30
41515;BME280;27247;48.020;16.720;2023-05-08T18:26:27;100550.78;;;15.10;65.58
41515;BME280;27247;48.020;16.720;2023-05-08T18:30:38;100564.25;;;14.95;68.08
41515;BME280;27247;48.020;16.720;2023-05-08T18:34:49;100564.44;;;14.79;67.12
41515;BME280;27247;48.020;16.720;2023-05-08T18:38:59;100571.75;;;14.70;65.24
41515;BME280;27247;48.020;16.720;2023-05-08T18:43:10;100576.03;;;14.64;65.97
41515;BME280;27247;48.020;16.720;2023-05-08T18:47:20;100585.66;;;14.59;67.03
41515;BME280;27247;48.020;16.720;2023-05-08T18:51:31;100582.66;;;14.54;67.16
41515;BME280;27247;48.020;16.720;2023-05-08T18:55:41;100587.28;;;14.45;65.66
41515;BME280;27247;48.020;16.720;2023-05-08T18:59:51;100583.56;;;14.23;65.99
41515;BME280;27247;48.020;16.720;2023-05-08T19:04:02;100587.13;;;14.01;65.73
41515;BME280;27247;48.020;16.720;2023-05-08T19:08:13;100584.06;;;13.81;66.50
41515;BME280;27247;48.020;16.720;2023-05-08T19:12:25;100591.91;;;13.60;65.64
41515;BME280;27247;48.020;16.720;2023-05-08T19:16:35;100595.63;;;13.51;66.38
41515;BME280;27247;48.020;16.720;2023-05-08T19:20:45;100597.69;;;13.40;66.58
41515;BME280;27247;48.020;16.720;2023-05-08T19:24:56;100611.03;;;13.26;68.94
41515;BME280;27247;48.020;16.720;2023-05-08T19:29:06;100610.50;;;13.30;68.44
41515;BME280;27247;48.020;16.720;2023-05-08T19:33:17;100616.91;;;13.21;68.17
41515;BME280;27247;48.020;16.720;2023-05-08T19:37:30;100617.75;;;13.22;70.00
41515;BME280;27247;48.020;16.720;2023-05-08T19:41:40;100619.25;;;13.24;70.27
41515;BME280;27247;48.020;16.720;2023-05-08T19:45:53;100623.59;;;13.25;70.60
41515;BME280;27247;48.020;16.720;2023-05-08T19:50:04;100617.25;;;13.18;70.91
41515;BME280;27247;48.020;16.720;2023-05-08T19:54:16;100619.41;;;13.15;71.17
41515;BME280;27247;48.020;16.720;2023-05-08T19:58:26;100614.56;;;13.18;68.10
41515;BME280;27247;48.020;16.720;2023-05-08T20:02:37;100609.72;;;13.05;67.86
41515;BME280;27247;48.020;16.720;2023-05-08T20:06:47;100622.63;;;13.10;67.61
41515;BME280;27247;48.020;16.720;2023-05-08T20:10:57;100616.59;;;13.08;66.62
41515;BME280;27247;48.020;16.720;2023-05-08T20:15:11;100613.28;;;12.90;66.62
41515;BME280;27247;48.020;16.720;2023-05-08T20:19:21;100609.31;;;12.69;66.32
41515;BME280;27247;48.020;16.720;2023-05-08T20:23:32;100609.50;;;12.60;67.33
41515;BME280;27247;48.020;16.720;2023-05-08T20:27:42;100613.84;;;12.53;67.98
41515;BME280;27247;48.020;16.720;2023-05-08T20:31:52;100624.72;;;12.43;67.49
41515;BME280;27247;48.020;16.720;2023-05-08T20:36:03;100610.50;;;12.34;67.71
41515;BME280;27247;48.020;16.720;2023-05-08T20:40:13;100609.66;;;12.26;67.77
41515;BME280;27247;48.020;16.720;2023-05-08T20:44:24;100604.63;;;12.14;68.18
41515;BME280;27247;48.020;16.720;2023-05-08T20:48:34;100607.31;;;12.06;68.52
41515;BME280;27247;48.020;16.720;2023-05-08T20:52:45;100610.47;;;12.02;69.06
41515;BME280;27247;48.020;16.720;2023-05-08T20:56:56;100626.00;;;11.82;69.88
41515;BME280;27247;48.020;16.720;2023-05-08T21:01:06;100622.13;;;11.76;71.51
41515;BME280;27247;48.020;16.720;2023-05-08T21:05:17;100625.34;;;11.80;71.07
41515;BME280;27247;48.020;16.720;2023-05-08T21:09:28;100628.19;;;11.78;71.07
41515;BME280;27247;48.020;16.720;2023-05-08T21:13:38;100627.84;;;11.81;69.50
41515;BME280;27247;48.020;16.720;2023-05-08T21:17:48;100619.75;;;11.65;69.84
41515;BME280;27247;48.020;16.720;2023-05-08T21:21:59;100625.56;;;11.52;70.88
41515;BME280;27247;48.020;16.720;2023-05-08T21:26:10;100629.91;;;11.45;71.16
41515;BME280;27247;48.020;16.720;2023-05-08T21:30:21;100636.03;;;11.38;72.45
41515;BME280;27247;48.020;16.720;2023-05-08T21:34:31;100639.81;;;11.27;73.29
41515;BME280;27247;48.020;16.720;2023-05-08T21:38:41;100637.78;;;11.21;73.61
41515;BME280;27247;48.020;16.720;2023-05-08T21:42:52;100638.44;;;11.15;73.00
41515;BME280;27247;48.020;16.720;2023-05-08T21:47:02;100636.19;;;11.02;72.93
41515;BME280;27247;48.020;16.720;2023-05-08T21:51:12;100636.72;;;10.80;73.98
41515;BME280;27247;48.020;16.720;2023-05-08T21:55:23;100642.44;;;10.59;74.61
41515;BME280;27247;48.020;16.720;2023-05-08T21:59:33;100652.38;;;10.49;76.09
41515;BME280;27247;48.020;16.720;2023-05-08T22:03:44;100640.69;;;10.32;77.67
41515;BME280;27247;48.020;16.720;2023-05-08T22:07:54;100645.66;;;10.45;76.86
41515;BME280;27247;48.020;16.720;2023-05-08T22:12:04;100639.16;;;10.30;77.54
41515;BME280;27247;48.020;16.720;2023-05-08T22:16:15;100644.13;;;10.24;78.36
41515;BME280;27247;48.020;16.720;2023-05-08T22:20:26;100649.97;;;10.10;78.39